G Force — MNHN9 — position and weather

sailwx.info

Track history (hours):
 
Tides and Currents Weather Stations Pressure Air Temp Water Temp Dewpoint Dewpoint Depression Visibility Wind Speed Wind Dir Waves Ship Positions

G Force

Last reported at 2015-Aug-02 21:31 UTC. Time now 2015-Aug-02 22:27 UTC.
Position N 42°26' E 018°42'.

Length 37 m; draft 2 m.

Type: Pleasure craft. MMSI: 235011330.

Date/timePositionNaut miles runAvg speedWind from/ knotsBaromVisibWave heightAir tempDewpointWater temp
2015-Aug-02 21:31N 42°26' E 018°42'0 0.0
2015-Aug-02 20:31N 42°26' E 018°42'0 0.0
2015-Aug-02 19:31N 42°26' E 018°42'0 0.0
2015-Aug-02 18:31N 42°26' E 018°42'0 0.0
2015-Aug-02 17:31N 42°26' E 018°42'0 0.0
2015-Aug-02 16:31N 42°26' E 018°42'0 0.0
2015-Aug-02 15:31N 42°26' E 018°42'0 0.0
2015-Aug-02 14:31N 42°26' E 018°42'0 0.0
2015-Aug-02 13:31N 42°26' E 018°42'0 0.0
2015-Aug-02 12:31N 42°26' E 018°42'0 0.0
2015-Aug-02 11:31N 42°26' E 018°42'0 0.0
2015-Aug-02 07:31N 42°26' E 018°42'0 0.0
2015-Aug-02 06:31N 42°26' E 018°42'0 0.0
2015-Aug-02 05:31N 42°26' E 018°42'0 0.0
2015-Aug-02 04:31N 42°26' E 018°42'0 0.0
2015-Aug-02 03:31N 42°26' E 018°42'0 0.0
2015-Aug-02 02:31N 42°26' E 018°42'0 0.0
2015-Aug-02 01:31N 42°26' E 018°42'0 0.0
2015-Aug-02 00:31N 42°26' E 018°42'0 0.0
2015-Aug-01 23:31N 42°26' E 018°42'0 0.0
2015-Aug-01 22:31N 42°26' E 018°42'0 0.0
2015-Aug-01 21:31N 42°26' E 018°42'0 0.0
2015-Aug-01 20:31N 42°26' E 018°42'0 0.0
2015-Aug-01 19:31N 42°26' E 018°42'0 0.0
2015-Aug-01 18:31N 42°26' E 018°42'0 0.0
2015-Aug-01 17:31N 42°26' E 018°42'0 0.0
2015-Aug-01 16:31N 42°26' E 018°42'0 0.0
2015-Aug-01 15:31N 42°26' E 018°42'0 0.0
2015-Aug-01 14:31N 42°26' E 018°42'0 0.0
2015-Aug-01 13:25N 42°26' E 018°42'0 0.0
2015-Aug-01 12:31N 42°26' E 018°42'0 0.0
2015-Aug-01 11:31N 42°26' E 018°42'0 0.0
2015-Aug-01 10:31N 42°26' E 018°42'0 0.2
2015-Aug-01 09:33N 42°26' E 018°41'0 0.0
2015-Aug-01 08:33N 42°26' E 018°41'0 0.1
2015-Aug-01 07:32N 42°26' E 018°41'0 0.0
2015-Aug-01 06:33N 42°26' E 018°41'0 0.0
2015-Aug-01 05:33N 42°26' E 018°41'0 0.0
2015-Aug-01 04:33N 42°26' E 018°41'0 0.0
2015-Aug-01 03:33N 42°26' E 018°41'0 0.0
2015-Aug-01 02:33N 42°26' E 018°41'0 0.0
2015-Aug-01 01:33N 42°26' E 018°41'0 0.0
2015-Aug-01 00:33N 42°26' E 018°41'0 0.0
2015-Jul-31 23:34N 42°26' E 018°41'10 9.5
2015-Jul-31 22:33N 42°25' E 018°29'  
2015-Jul-26 16:26N 42°25' E 018°28'8 9.4
2015-Jul-26 15:33N 42°26' E 018°39'2 2.0
2015-Jul-26 14:34N 42°27' E 018°41'4 3.6
2015-Jul-26 13:33N 42°27' E 018°46'0 0.0
2015-Jul-26 12:33N 42°27' E 018°46'3 3.2
2015-Jul-26 11:33N 42°29' E 018°42'6 5.8
2015-Jul-26 10:31N 42°27' E 018°34'0 0.0
2015-Jul-26 09:31N 42°27' E 018°34'0 0.0
2015-Jul-26 08:31N 42°27' E 018°34'0 0.0
2015-Jul-26 07:28N 42°27' E 018°34'0 0.0
2015-Jul-26 06:31N 42°27' E 018°34'1 1.0
2015-Jul-26 05:33N 42°26' E 018°35'5 4.9
2015-Jul-26 04:32N 42°26' E 018°42'0 0.0
2015-Jul-26 03:32N 42°26' E 018°42'0 0.0
2015-Jul-26 02:32N 42°26' E 018°42'0 0.0
2015-Jul-26 01:32N 42°26' E 018°42'0 0.0
2015-Jul-26 00:32N 42°26' E 018°42'0 0.0
2015-Jul-25 23:32N 42°26' E 018°42'0 0.0
2015-Jul-25 22:32N 42°26' E 018°42'0 0.0
2015-Jul-25 21:32N 42°26' E 018°42'0 0.0
2015-Jul-25 20:32N 42°26' E 018°42'0 0.0
2015-Jul-25 19:32N 42°26' E 018°42'0 0.0
2015-Jul-25 18:32N 42°26' E 018°42'0 0.0
2015-Jul-25 17:32N 42°26' E 018°42'0 0.0
2015-Jul-25 16:32N 42°26' E 018°42'0 0.0
2015-Jul-25 15:32N 42°26' E 018°42'0 0.0
2015-Jul-25 14:32N 42°26' E 018°42'0 0.0
2015-Jul-25 13:32N 42°26' E 018°42'0 0.0
2015-Jul-25 12:32N 42°26' E 018°42'0 0.0
2015-Jul-25 06:20N 42°26' E 018°42'0 0.0
2015-Jul-24 00:11N 42°26' E 018°42'0 0.0
2015-Jul-23 23:32N 42°26' E 018°42'0 0.0
2015-Jul-23 22:32N 42°26' E 018°42'0 0.0
2015-Jul-23 21:32N 42°26' E 018°42'  
Track history (hours):
 
Tides and Currents Weather Stations Pressure Air Temp Water Temp Dewpoint Dewpoint Depression Visibility Wind Speed Wind Dir Waves Ship Positions

G Force

Last reported at 2015-Aug-02 21:31 UTC. Time now 2015-Aug-02 22:27 UTC.
Position N 42°26' E 018°42'.

Length 37 m; draft 2 m.

Type: Pleasure craft. MMSI: 235011330.

Date/timePositionNaut miles runAvg speedWind from/ knotsBaromVisibWave heightAir tempDewpointWater temp
2015-Aug-02 21:31N 42°26' E 018°42'0 0.0
2015-Aug-02 20:31N 42°26' E 018°42'0 0.0
2015-Aug-02 19:31N 42°26' E 018°42'0 0.0
2015-Aug-02 18:31N 42°26' E 018°42'0 0.0
2015-Aug-02 17:31N 42°26' E 018°42'0 0.0
2015-Aug-02 16:31N 42°26' E 018°42'0 0.0
2015-Aug-02 15:31N 42°26' E 018°42'0 0.0
2015-Aug-02 14:31N 42°26' E 018°42'0 0.0
2015-Aug-02 13:31N 42°26' E 018°42'0 0.0
2015-Aug-02 12:31N 42°26' E 018°42'0 0.0
2015-Aug-02 11:31N 42°26' E 018°42'0 0.0
2015-Aug-02 07:31N 42°26' E 018°42'0 0.0
2015-Aug-02 06:31N 42°26' E 018°42'0 0.0
2015-Aug-02 05:31N 42°26' E 018°42'0 0.0
2015-Aug-02 04:31N 42°26' E 018°42'0 0.0
2015-Aug-02 03:31N 42°26' E 018°42'0 0.0
2015-Aug-02 02:31N 42°26' E 018°42'0 0.0
2015-Aug-02 01:31N 42°26' E 018°42'0 0.0
2015-Aug-02 00:31N 42°26' E 018°42'0 0.0
2015-Aug-01 23:31N 42°26' E 018°42'0 0.0
2015-Aug-01 22:31N 42°26' E 018°42'0 0.0
2015-Aug-01 21:31N 42°26' E 018°42'0 0.0
2015-Aug-01 20:31N 42°26' E 018°42'0 0.0
2015-Aug-01 19:31N 42°26' E 018°42'0 0.0
2015-Aug-01 18:31N 42°26' E 018°42'0 0.0
2015-Aug-01 17:31N 42°26' E 018°42'0 0.0
2015-Aug-01 16:31N 42°26' E 018°42'0 0.0
2015-Aug-01 15:31N 42°26' E 018°42'0 0.0
2015-Aug-01 14:31N 42°26' E 018°42'0 0.0
2015-Aug-01 13:25N 42°26' E 018°42'0 0.0
2015-Aug-01 12:31N 42°26' E 018°42'0 0.0
2015-Aug-01 11:31N 42°26' E 018°42'0 0.0
2015-Aug-01 10:31N 42°26' E 018°42'0 0.2
2015-Aug-01 09:33N 42°26' E 018°41'0 0.0
2015-Aug-01 08:33N 42°26' E 018°41'0 0.1
2015-Aug-01 07:32N 42°26' E 018°41'0 0.0
2015-Aug-01 06:33N 42°26' E 018°41'0 0.0
2015-Aug-01 05:33N 42°26' E 018°41'0 0.0
2015-Aug-01 04:33N 42°26' E 018°41'0 0.0
2015-Aug-01 03:33N 42°26' E 018°41'0 0.0
2015-Aug-01 02:33N 42°26' E 018°41'0 0.0
2015-Aug-01 01:33N 42°26' E 018°41'0 0.0
2015-Aug-01 00:33N 42°26' E 018°41'0 0.0
2015-Jul-31 23:34N 42°26' E 018°41'10 9.5
2015-Jul-31 22:33N 42°25' E 018°29'  
2015-Jul-26 16:26N 42°25' E 018°28'8 9.4
2015-Jul-26 15:33N 42°26' E 018°39'2 2.0
2015-Jul-26 14:34N 42°27' E 018°41'4 3.6
2015-Jul-26 13:33N 42°27' E 018°46'0 0.0
2015-Jul-26 12:33N 42°27' E 018°46'3 3.2
2015-Jul-26 11:33N 42°29' E 018°42'6 5.8
2015-Jul-26 10:31N 42°27' E 018°34'0 0.0
2015-Jul-26 09:31N 42°27' E 018°34'0 0.0
2015-Jul-26 08:31N 42°27' E 018°34'0 0.0
2015-Jul-26 07:28N 42°27' E 018°34'0 0.0
2015-Jul-26 06:31N 42°27' E 018°34'1 1.0
2015-Jul-26 05:33N 42°26' E 018°35'5 4.9
2015-Jul-26 04:32N 42°26' E 018°42'0 0.0
2015-Jul-26 03:32N 42°26' E 018°42'0 0.0
2015-Jul-26 02:32N 42°26' E 018°42'0 0.0
2015-Jul-26 01:32N 42°26' E 018°42'0 0.0
2015-Jul-26 00:32N 42°26' E 018°42'0 0.0
2015-Jul-25 23:32N 42°26' E 018°42'0 0.0
2015-Jul-25 22:32N 42°26' E 018°42'0 0.0
2015-Jul-25 21:32N 42°26' E 018°42'0 0.0
2015-Jul-25 20:32N 42°26' E 018°42'0 0.0
2015-Jul-25 19:32N 42°26' E 018°42'0 0.0
2015-Jul-25 18:32N 42°26' E 018°42'0 0.0
2015-Jul-25 17:32N 42°26' E 018°42'0 0.0
2015-Jul-25 16:32N 42°26' E 018°42'0 0.0
2015-Jul-25 15:32N 42°26' E 018°42'0 0.0
2015-Jul-25 14:32N 42°26' E 018°42'0 0.0
2015-Jul-25 13:32N 42°26' E 018°42'0 0.0
2015-Jul-25 12:32N 42°26' E 018°42'0 0.0
2015-Jul-25 06:20N 42°26' E 018°42'0 0.0
2015-Jul-24 00:11N 42°26' E 018°42'0 0.0
2015-Jul-23 23:32N 42°26' E 018°42'0 0.0
2015-Jul-23 22:32N 42°26' E 018°42'0 0.0
2015-Jul-23 21:32N 42°26' E 018°42'  

Dump ship's entire track history